South Corinth, Vermont
Current Conditions -  °F | °C
As of 4:13 AM on Thursday 27 Nov 2014 (Local Time) from KMPV Reporting Station
Light Snow Light Snow  
Wind Chill: 19°   Ceiling: 2100
Heat Index: 26°   Visibility: 3mi
Dew Point: 25°   Wind: 6mph
Humidity: 96%   Direction: 330°NNW
Pressure: 29.88"   Gusts: NA
Location:  44.0089°N, 72.1564°W
Report Text: KMPV 270913Z AUTO 33005KT 3SM -SN BR FEW008 BKN021 OVC034 M03/M04 A2988 RMK AO2 P0000 T10331039
Loading
Personal Weather Stations






























Interactive Weather Map New forecast layout! Learn more

10-Day Weather Forecast

Advertisements
Track Severe Weather on mobile